Enter the Airport ICAO Code

Search by Airport or City

Current Weather

LEBB | Bilbao Airport

Bilbao, Basque Country, Spain

Last Update 21 Minutes Ago

Mostly Cloudy Sky

Temperature of 07 ºC

Light to Moderate Winds from West

Temperature

07 ºC

Dew Point Temperature

04 ºC

Relative Humidity

81.24 %

Wind Direction

West (250º, Ranging from 200º to 290º)

Wind Velocity

11 km/h (06 kt)

Gusts

None

Visibility

Greater than 10 Kilometers

Sea Level Pressure

1004 hPa (Hectopascals)

Layers of Clouds

5% to 30% of Sky Covered from 914 mts (3000 ft) Above Ground Level.

30% to 60% of Sky Covered from 1219 mts (4000 ft) Above Ground Level.

60% to 90% of Sky Covered from 1524 mts (5000 ft) Above Ground Level.

METAR LEBB 052230Z 25006KT 200V290 9999 FEW030 SCT040 BKN050 07/04 Q1004 TEMPO 3000 TSRA BKN025CB

Weather Forecast

LEBB | Bilbao Airport

Bilbao, Basque Country, Spain

Forecast valid for the next 19 Hours

From now on it is expected:

Mostly Cloudy Sky

Light to Moderate Winds from West

From now on it is expected 15 hours with intermittent periods of:

Heavy Rain

Moderate to Strong Winds from West with Gusts

Maximum Temperature

08 ºC in 14 Hours

Minimum Temperature

05 ºC in 4 Hours

TAF LEBB 051700Z 0518/0618 27009KT 9000 SCT020 BKN035 TX08/0613Z TN05/0603Z TEMPO 0518/0618 25018G30KT 3000 RA SHRA BKN030TCU PROB40 TEMPO 0518/0614 29020G35KT 1500 +SHRA TSRAGS BKN014 BKN025CB